createdAt,value
2023-03-15T00:16:04.401Z,47.0
2023-03-15T00:36:04.328Z,46.9
2023-03-15T00:56:04.303Z,46.9
2023-03-15T01:16:04.329Z,46.9
2023-03-15T01:36:04.229Z,46.9
2023-03-15T01:56:04.212Z,46.8
2023-03-15T02:16:04.210Z,46.8
2023-03-15T02:36:04.170Z,46.8
2023-03-15T02:56:04.156Z,46.7
2023-03-15T03:16:04.177Z,46.6
2023-03-15T03:36:04.099Z,46.6
2023-03-15T03:56:04.054Z,46.6
2023-03-15T04:16:04.047Z,46.8
2023-03-15T04:36:04.026Z,46.5
2023-03-15T04:56:04.034Z,46.4
2023-03-15T05:16:04.012Z,46.2
2023-03-15T05:36:04.001Z,46.1
2023-03-15T05:56:04.022Z,45.9
2023-03-15T06:16:03.896Z,45.8
2023-03-15T06:36:03.876Z,45.6
2023-03-15T06:56:03.864Z,45.7
2023-03-15T07:16:03.848Z,45.9
2023-03-15T07:36:03.812Z,46.0
2023-03-15T07:56:03.802Z,46.0
2023-03-15T08:16:03.781Z,46.0
2023-03-15T08:36:03.787Z,46.1
2023-03-15T08:56:03.731Z,45.4
2023-03-15T09:16:03.829Z,45.6
2023-03-15T09:36:03.643Z,45.4
2023-03-15T09:56:03.659Z,45.3
2023-03-15T10:16:03.608Z,45.1
2023-03-15T10:36:03.579Z,44.9
2023-03-15T10:56:03.583Z,42.3
2023-03-15T11:16:03.600Z,42.9
2023-03-15T11:36:03.496Z,43.3
2023-03-15T11:56:03.468Z,44.3
2023-03-15T12:16:03.457Z,44.7
2023-03-15T12:36:03.435Z,44.9
2023-03-15T12:56:03.472Z,45.0
2023-03-15T13:16:03.345Z,45.0
2023-03-15T13:36:03.388Z,45.2
2023-03-15T13:56:03.347Z,45.1
2023-03-15T14:16:03.291Z,45.1
2023-03-15T14:36:03.306Z,45.2
2023-03-15T14:56:03.267Z,45.2
2023-03-15T15:16:03.247Z,45.3
2023-03-15T15:36:03.228Z,45.4
2023-03-15T15:56:03.219Z,45.4
2023-03-15T16:16:03.162Z,44.9
2023-03-15T16:36:03.111Z,43.9
2023-03-15T16:56:03.245Z,43.3
2023-03-15T17:16:03.067Z,43.6
2023-03-15T17:36:03.191Z,44.3
2023-03-15T17:56:03.155Z,44.2
2023-03-15T18:16:02.985Z,44.2
2023-03-15T18:36:03.029Z,44.3
2023-03-15T18:56:02.919Z,44.3
2023-03-15T19:16:02.896Z,44.3
2023-03-15T19:36:02.886Z,44.5
2023-03-15T19:56:02.869Z,44.5
2023-03-15T20:16:02.958Z,44.4
2023-03-15T20:36:02.822Z,44.4
2023-03-15T20:56:02.781Z,44.3
2023-03-15T21:16:02.743Z,44.2
2023-03-15T21:36:02.745Z,43.9
2023-03-15T21:56:02.718Z,44.0
2023-03-15T22:16:02.763Z,44.2
2023-03-15T22:36:02.716Z,44.2
2023-03-15T22:56:02.719Z,44.2
2023-03-15T23:16:02.661Z,44.2
2023-03-15T23:36:02.591Z,44.2
2023-03-15T23:56:02.682Z,44.3
